Date,TemperatureHighF,TemperatureAvgF,TemperatureLowF,DewpointHighF,DewpointAvgF,DewpointLowF,HumidityHigh,HumidityAvg,HumidityLow,PressureMaxIn,PressureMinIn,WindSpeedMaxMPH,WindSpeedAvgMPH,GustSpeedMaxMPH,PrecipitationSumIn
2012-1-1,38,32,25,36,28,16,95,86,68,29.92,29.55,14,7,23,0.05
2012-1-2,25,19,10,16,10,4,77,67,54,30.40,29.92,17,9,25,0.00
2012-1-3,19,10,4,10,4,1,85,79,65,30.40,30.21,7,3,22,0.00
2012-1-4,23,21,18,17,15,13,81,78,75,29.94,29.87,6,3,1,0.00
2012-1-5,42,32,22,34,26,18,88,79,68,29.96,29.48,9,4,0,0.00
2012-1-6,47,41,34,34,32,29,81,70,50,29.67,29.50,7,4,11,0.00
2012-1-7,35,32,20,29,23,15,84,71,57,30.24,29.67,10,4,16,0.00
2012-1-8,40,29,17,28,22,14,90,77,47,30.27,30.13,9,3,13,0.00
2012-1-9,46,36,29,31,28,26,86,73,55,30.13,29.71,13,6,21,0.00
2012-1-10,45,35,22,34,29,20,93,80,64,29.98,29.70,10,3,21,0.00
2012-1-11,48,36,28,35,31,26,94,82,59,29.70,29.55,7,2,14,0.00
2012-1-12,36,26,20,34,23,17,93,88,76,29.58,29.48,12,9,19,0.00
2012-1-13,22,20,15,20,13,7,92,76,65,30.04,29.54,15,8,27,0.00
2012-1-14,19,14,7,13,9,4,89,80,72,30.24,30.04,6,2,27,0.00
2012-1-15,33,21,4,29,17,0,89,84,77,30.32,29.99,13,4,18,0.00
2012-1-16,36,32,26,29,27,23,91,81,72,29.99,29.74,7,2,11,0.00
2012-1-17,32,23,15,25,16,7,91,75,65,30.18,29.80,15,9,23,0.00
2012-1-18,23,15,5,18,7,1,88,71,61,30.23,29.66,12,5,24,0.00
2012-1-19,22,6,-4,19,-4,-15,90,62,49,30.21,29.63,14,7,19,0.00
2012-1-20,10,2,-8,2,-8,-16,71,60,46,30.29,30.20,5,2,15,0.00
2012-1-21,19,11,-4,13,2,-10,82,67,56,30.33,30.13,5,1,8,0.00
2012-1-22,35,30,18,34,28,13,96,91,81,30.14,29.57,9,5,14,0.03
2012-1-23,36,33,27,34,31,22,97,95,83,29.72,29.25,12,6,15,0.33
2012-1-24,69,46,24,52,34,16,90,65,46,30.31,29.72,13,4,18,0.32
2012-1-25,69,69,68,47,45,43,45,42,40,30.33,30.28,0,0,17,0.00
2012-2-28,69,36,31,40,24,19,78,64,22,30.36,30.25,6,3,9,0.06
2012-2-29,36,34,32,35,32,31,96,95,93,30.00,29.39,10,2,15,0.55
2012-3-1,34,32,30,32,30,29,96,92,86,29.83,29.54,7,3,13,0.14
2012-3-2,36,32,31,33,31,29,95,93,88,29.82,29.67,6,1,7,0.07
2012-3-3,32,28,18,31,27,15,97,95,89,29.83,29.36,11,6,0,0.10
2012-3-4,22,19,13,18,15,9,90,85,77,30.08,29.83,6,4,0,0.00
2012-3-5,29,20,5,24,14,2,90,79,64,30.33,30.08,9,4,14,0.01
2012-3-6,50,38,29,41,31,24,89,77,63,30.19,29.74,10,5,16,0.01
2012-3-7,55,50,40,51,42,36,94,74,60,29.76,29.57,12,8,21,0.10
2012-3-8,40,35,31,37,24,15,91,65,38,30.07,29.69,12,8,21,0.00
2012-3-9,31,26,23,22,14,7,69,59,41,30.49,30.07,15,10,21,0.00
2012-3-10,56,42,29,34,27,13,75,56,41,30.48,29.94,14,7,0,0.00
2012-3-11,63,52,41,38,34,32,71,51,35,30.08,29.99,11,6,0,0.00
2012-3-12,54,47,43,52,44,33,97,89,60,29.98,29.63,8,4,0,0.75
2012-3-13,61,49,36,45,33,18,91,61,19,30.02,29.72,11,5,18,0.01
2012-3-14,45,34,31,38,28,25,88,78,69,30.01,29.93,4,0,18,0.00
2012-3-15,57,52,42,42,38,31,65,59,54,30.07,29.98,6,4,18,0.00
2012-3-16,62,45,33,42,33,24,94,64,39,30.11,30.00,6,3,11,0.00
2012-3-17,75,56,38,62,50,37,97,81,59,30.00,29.89,13,4,18,0.00
2012-3-18,75,61,47,60,53,44,93,76,56,29.96,29.88,10,4,16,0.00
2012-3-19,71,60,51,62,55,48,95,83,68,29.93,29.86,9,3,16,0.00
2012-3-20,76,63,53,59,53,47,95,72,53,29.98,29.88,12,4,18,0.00
2012-3-21,82,67,50,60,54,46,87,65,43,30.04,29.95,11,4,18,0.00
2012-3-22,64,53,46,53,50,44,95,88,68,30.17,30.04,11,8,19,0.03
2012-3-23,51,46,44,50,45,43,98,96,94,30.09,29.89,10,5,24,0.09
2012-3-24,50,46,44,44,41,37,97,83,69,29.96,29.87,10,5,14,0.00
2012-3-25,52,45,32,48,38,24,93,79,66,30.33,29.93,11,5,14,0.00
2012-3-26,37,33,27,28,24,20,75,69,56,30.51,30.28,10,6,16,0.00
2012-3-27,57,44,36,48,34,28,84,68,53,30.28,29.55,14,8,23,0.00
2012-3-28,60,49,39,47,36,32,80,61,52,30.10,29.55,14,9,23,0.00
2012-3-29,40,38,37,34,30,27,81,72,64,30.22,30.09,9,5,20,0.00
2012-3-30,38,37,33,34,32,30,88,84,82,30.05,29.96,6,4,0,0.29
2012-4-3,55,55,55,42,42,42,62,62,62,29.95,29.95,6,6,11,0.00
2012-4-4,52,46,37,33,30,27,74,55,42,30.10,29.99,11,7,15,0.00
2012-4-5,37,33,31,28,27,26,84,79,69,30.16,30.10,6,4,13,0.00
2012-4-6,34,30,28,25,23,22,78,74,66,30.36,30.27,4,2,4,0.00
2012-4-9,54,45,35,32,23,18,79,43,29,30.01,29.84,15,9,22,0.00
2012-4-10,36,34,33,24,22,20,66,61,53,30.00,29.97,9,6,18,0.00
2012-4-11,45,41,31,33,30,26,86,66,57,30.30,30.23,8,4,18,0.00
2012-4-12,50,39,27,38,32,25,94,79,55,30.27,30.19,8,3,12,0.00
2012-4-13,55,46,28,40,35,26,94,66,47,30.24,29.92,9,4,16,0.00
2012-4-14,72,58,50,52,46,37,87,66,40,29.92,29.70,12,6,16,0.00
2012-4-15,65,54,47,61,52,45,97,91,82,29.72,29.40,10,3,16,0.11
2012-4-16,64,49,33,61,42,22,93,77,60,30.19,29.29,18,10,25,0.09
2012-4-17,42,33,31,30,24,22,72,68,61,30.41,30.19,8,5,22,0.00
2012-4-18,65,58,49,51,45,42,81,64,46,29.93,29.81,14,7,23,0.15
2012-4-19,50,40,33,41,35,32,94,80,69,30.08,29.93,10,5,16,0.72
2012-4-20,37,34,33,35,33,32,95,95,94,29.95,29.86,10,7,14,0.25
2012-4-23,43,43,43,22,22,22,43,43,43,30.07,30.07,9,9,14,0.00
2012-4-24,57,49,38,32,28,24,64,46,29,29.72,29.65,6,2,15,0.00
2012-4-25,52,44,33,43,35,27,89,71,48,29.80,29.71,6,1,15,0.02
2012-4-26,50,44,32,42,31,17,93,62,28,30.19,29.72,16,8,24,0.03
2012-4-27,50,40,28,30,24,18,80,54,28,30.29,30.19,8,3,20,0.00
2012-4-28,47,42,32,34,31,25,87,66,51,30.30,30.22,10,5,12,0.00
2012-4-29,55,43,27,37,30,25,93,63,35,30.38,30.13,7,3,12,0.00
2012-4-30,50,47,42,45,41,31,93,81,54,30.13,29.89,9,3,14,0.11
2012-5-1,59,53,42,50,46,39,92,80,69,29.98,29.82,10,4,16,0.00
2012-5-2,76,59,47,62,54,44,95,84,59,29.85,29.65,11,4,16,0.28
2012-5-3,73,62,52,66,59,50,97,91,76,29.88,29.74,9,3,12,0.50
2012-5-4,61,54,47,51,47,41,93,79,60,30.11,29.88,11,6,18,0.00
2012-5-5,54,50,47,47,44,41,89,80,70,30.14,30.05,11,6,15,0.04
2012-5-6,51,48,45,47,44,41,91,86,74,30.11,29.97,9,4,14,0.22
2012-5-7,61,53,49,54,49,46,94,86,76,29.97,29.80,5,2,10,0.00
2012-5-8,57,52,49,54,50,47,95,91,84,29.85,29.76,9,3,13,0.09
2012-5-9,59,51,41,47,41,35,92,70,41,29.93,29.83,11,5,16,0.00
2012-5-10,68,55,37,44,39,34,93,59,33,29.99,29.88,11,4,16,0.00
2012-5-11,75,63,52,55,46,36,70,53,40,30.05,29.92,13,6,18,0.00
2012-5-12,65,58,45,51,41,31,81,55,29,30.26,30.05,11,5,15,0.00
2012-5-13,72,58,40,48,39,32,91,55,23,30.25,30.04,10,4,17,0.00
2012-5-14,80,67,51,51,46,42,79,51,31,30.04,29.83,13,5,20,0.00
2012-5-15,84,68,48,52,46,35,73,49,20,30.00,29.66,15,8,20,0.00
2012-5-16,62,51,38,44,37,28,89,61,29,30.14,29.99,10,3,21,0.00
2012-5-17,66,55,41,47,39,34,82,57,40,30.19,29.97,8,4,21,0.00
2012-5-18,76,64,50,52,47,43,80,53,35,29.98,29.89,10,4,18,0.00
2012-5-19,81,71,57,60,53,45,68,55,44,29.98,29.89,10,4,18,0.00
2012-5-20,81,71,56,66,60,49,84,67,53,29.97,29.75,11,5,16,0.05
2012-5-21,67,58,47,49,44,40,78,60,39,30.13,29.97,11,6,21,0.00
2012-5-22,67,55,40,46,41,35,91,63,36,30.13,29.91,7,2,21,0.00
2012-5-23,70,59,44,52,47,41,93,67,42,29.91,29.68,9,3,14,0.00
2012-5-24,77,68,56,64,54,48,82,61,40,29.70,29.42,14,6,23,0.04
2012-5-25,78,68,58,65,52,43,93,60,30,30.08,29.50,13,6,19,0.13
2012-5-26,68,59,51,58,52,47,90,79,63,30.20,30.02,7,3,19,0.01
2012-5-27,76,67,56,67,61,51,95,82,72,30.12,29.71,13,5,23,1.63
2012-5-28,84,71,65,72,65,61,94,83,58,29.71,29.54,10,3,17,0.12
2012-5-29,69,64,56,65,51,44,94,66,42,29.79,29.58,12,6,23,0.02
2012-5-30,56,51,46,52,46,42,92,83,69,30.00,29.77,7,3,23,0.00
2012-5-31,50,45,42,44,42,40,93,88,78,30.08,30.00,4,1,11,0.00
2012-6-1,57,53,46,48,43,40,81,69,56,29.96,29.68,7,4,0,0.00
2012-6-2,68,58,51,53,46,42,84,67,43,29.68,29.56,13,3,0,0.00
2012-6-3,76,62,53,56,50,46,90,66,44,29.84,29.63,8,3,0,0.00
2012-6-4,72,61,53,57,52,49,93,74,47,29.96,29.84,8,2,12,0.00
2012-6-5,68,60,50,57,52,47,95,77,52,30.09,29.96,7,2,11,0.00
2012-6-6,76,62,47,54,48,45,93,65,35,30.11,30.03,6,2,10,0.00
2012-6-7,80,68,54,62,53,49,83,62,35,30.10,29.96,7,2,10,0.00
2012-6-8,83,72,61,69,62,55,86,72,53,29.97,29.73,9,3,15,0.04
2012-6-9,90,79,66,64,61,58,80,56,37,29.77,29.70,10,5,17,0.00
2012-6-10,89,77,66,67,62,59,81,60,41,29.85,29.75,11,5,17,0.00
2012-6-11,85,77,69,69,63,52,72,63,50,29.77,29.63,10,5,15,0.00
2012-6-12,69,62,51,53,46,40,83,57,37,30.14,29.74,13,6,23,0.00
2012-6-13,67,58,44,52,47,41,91,67,51,30.21,30.10,8,3,23,0.00
2012-6-14,71,63,50,56,51,43,92,67,38,30.15,29.95,8,3,14,0.00
2012-6-15,79,71,62,64,56,48,78,61,46,30.02,29.91,10,3,20,0.00
2012-6-16,78,70,62,67,60,51,91,74,46,30.01,29.72,8,3,16,0.01
2012-6-17,82,72,61,68,59,51,92,66,36,29.79,29.67,10,4,17,0.00
2012-6-18,75,69,63,70,65,58,97,86,66,29.71,29.45,13,4,19,1.37
2012-6-19,84,74,68,72,70,67,97,86,63,29.87,29.67,20,4,20,0.52
2012-6-20,90,82,74,74,70,66,81,70,54,29.83,29.66,13,7,19,0.01
2012-6-21,80,72,62,68,62,55,95,73,46,29.90,29.70,10,5,16,0.10
2012-6-22,74,65,54,60,56,48,91,72,40,29.99,29.90,9,2,15,0.00
2012-6-23,75,64,51,64,58,49,96,84,63,30.02,29.95,6,2,8,0.02
2012-6-24,75,67,56,68,59,45,94,76,58,30.08,29.91,10,4,15,0.10
2012-6-25,71,61,48,54,49,45,89,65,45,30.17,30.06,8,3,10,0.00
2012-6-26,77,65,50,57,53,48,93,68,40,30.08,29.88,7,3,11,0.00
2012-6-27,81,69,54,66,60,52,94,74,51,29.88,29.66,9,3,15,0.00
2012-6-28,89,77,66,76,68,59,92,74,41,29.77,29.66,10,3,17,0.00
2012-6-29,88,76,64,64,61,58,82,61,37,29.80,29.67,10,4,13,0.00
2012-6-30,88,79,67,63,60,55,81,55,35,29.83,29.70,9,4,16,0.00
2012-7-1,86,74,60,68,61,56,90,65,44,29.93,29.83,7,2,11,0.00
2012-7-2,85,76,64,73,65,60,91,69,47,29.96,29.75,9,2,12,0.06
2012-7-3,89,77,68,75,70,66,94,80,61,29.87,29.68,14,4,14,0.13
2012-7-4,88,80,72,75,72,67,94,79,62,29.89,29.71,14,3,23,0.00
2012-7-5,95,82,71,81,74,67,90,79,61,29.87,29.78,7,2,11,0.00
2012-7-6,87,77,64,72,67,61,92,72,48,29.95,29.85,12,2,15,0.00
2012-7-7,80,70,63,66,63,60,93,78,56,30.09,29.88,13,4,15,0.15
2012-7-8,85,72,60,67,63,57,93,74,52,30.09,29.97,8,2,10,0.00
2012-7-9,77,69,62,67,63,58,94,82,57,30.08,30.02,13,2,17,0.48
2012-7-10,77,68,59,64,60,53,93,76,44,30.16,30.08,6,2,11,0.00
2012-7-11,84,71,56,63,58,54,95,67,36,30.16,30.05,6,2,9,0.00
2012-7-12,85,74,61,64,61,56,90,67,38,30.09,30.00,6,2,10,0.00
2012-7-13,86,76,63,70,65,59,92,71,46,30.03,29.93,7,2,15,0.00
2012-7-14,86,78,69,71,68,66,93,74,53,29.96,29.87,10,3,15,0.29
2012-7-15,86,76,68,74,71,66,96,83,64,29.98,29.90,6,2,10,0.01
2012-7-16,96,83,69,76,70,64,95,68,41,29.94,29.63,11,4,14,0.00
2012-7-17,84,78,70,73,69,63,87,74,53,29.88,29.65,8,4,13,0.03
2012-7-18,76,71,65,68,64,62,88,80,67,29.99,29.87,7,3,12,0.01
2012-7-19,72,67,60,65,62,58,95,86,76,30.07,29.88,9,4,15,0.76
2012-7-20,78,69,57,66,60,55,96,75,50,30.13,30.00,6,2,10,0.00
2012-7-21,89,76,65,76,68,59,87,76,57,30.02,29.88,7,3,13,0.01
2012-7-22,85,76,64,76,68,60,91,78,65,30.01,29.84,6,2,8,0.00
2012-7-23,94,83,73,74,68,62,88,63,36,29.88,29.76,10,5,16,0.00
2012-7-24,80,73,64,67,63,60,91,74,50,29.99,29.88,7,2,10,0.00
2012-7-25,84,73,63,75,68,60,92,84,71,29.91,29.51,8,2,10,0.14
2012-7-26,76,71,65,70,67,63,95,86,68,29.75,29.55,6,2,9,0.10
2012-7-27,74,68,63,68,64,56,96,88,71,30.03,29.73,10,3,14,1.10
2012-7-28,77,66,57,62,58,52,91,75,50,30.13,30.03,6,2,9,0.00
2012-7-29,81,71,58,70,65,57,96,82,63,30.06,29.89,6,2,9,0.00
2012-7-30,86,75,67,74,69,65,95,83,62,29.93,29.68,10,4,13,0.23
2012-7-31,78,71,64,68,64,62,92,80,60,29.91,29.81,7,3,12,0.00
2012-8-1,82,71,60,70,65,59,96,82,59,29.92,29.73,8,2,13,0.01
2012-8-2,86,76,70,72,69,66,93,79,52,29.85,29.67,9,3,14,0.03
2012-8-3,76,71,66,71,67,63,93,88,80,29.93,29.85,8,4,14,0.00
2012-8-4,85,73,68,74,69,63,96,87,60,29.90,29.74,12,3,14,0.70
2012-8-5,76,68,58,67,56,47,95,69,36,30.08,29.77,12,5,16,0.00
2012-8-6,82,70,55,64,58,52,89,68,45,30.09,29.88,8,3,16,0.00
2012-8-7,82,72,62,68,61,56,85,70,46,29.99,29.85,7,3,15,0.00
2012-8-8,72,66,59,62,58,54,88,76,60,30.04,29.98,7,2,9,0.07
2012-8-9,68,63,58,62,58,56,92,85,65,29.99,29.93,7,3,15,0.27
2012-8-10,71,63,57,58,52,47,91,70,45,30.00,29.95,13,8,23,0.00
2012-8-11,78,66,56,58,54,50,87,67,41,29.97,29.91,11,6,14,0.00
2012-8-12,76,64,51,64,57,48,93,79,55,29.99,29.91,5,1,10,0.00
2012-8-13,78,66,60,66,61,57,94,84,61,29.92,29.85,11,1,18,0.05
2012-8-14,79,66,56,65,59,52,95,78,40,29.91,29.83,7,2,10,0.00
2012-8-15,77,68,55,68,62,53,94,81,64,29.91,29.78,6,2,11,0.00
2012-8-16,74,69,62,67,62,55,93,77,54,29.82,29.63,12,5,16,0.10
2012-8-17,74,62,51,55,48,39,90,64,29,29.98,29.82,10,4,14,0.00
2012-8-18,75,62,48,56,50,44,91,68,43,29.99,29.87,8,3,11,0.00
2012-8-19,70,62,54,60,56,52,93,80,56,29.96,29.90,5,2,11,0.07
2012-8-20,73,61,49,55,51,47,94,73,43,29.98,29.91,10,2,12,0.00
2012-8-21,80,66,51,63,56,48,92,74,44,30.02,29.96,7,2,9,0.00
2012-8-22,81,69,54,62,57,50,90,68,44,30.02,29.95,9,3,17,0.00
2012-8-23,84,71,58,69,63,56,95,78,50,29.99,29.90,10,2,13,0.00
2012-8-24,82,74,69,69,65,62,87,74,54,29.93,29.88,9,3,18,0.13
2012-8-25,90,76,64,70,65,60,94,71,38,29.98,29.90,6,2,12,0.00
2012-8-26,75,70,68,70,67,63,96,90,67,30.00,29.89,5,1,8,0.47
2012-8-27,83,72,61,67,62,56,96,73,44,30.06,29.92,8,4,12,0.01
2012-8-28,75,66,58,64,60,55,93,82,65,30.14,30.03,5,1,10,0.00
2012-8-29,82,70,57,69,63,55,96,79,59,30.07,29.90,7,3,12,0.00
2012-8-30,87,78,69,70,67,62,86,70,57,29.91,29.72,12,6,19,0.00
2012-8-31,81,74,62,68,61,55,86,64,43,30.10,29.79,7,3,19,0.00
2012-9-1,77,66,52,65,58,50,94,75,48,30.17,30.05,9,3,15,0.00
2012-9-2,77,69,56,65,61,54,93,77,57,30.06,29.92,8,2,14,0.00
2012-9-3,84,72,60,74,67,58,95,86,70,29.93,29.81,9,2,15,0.24
2012-9-4,78,71,65,72,68,64,97,93,80,29.87,29.73,5,1,6,0.00
2012-9-5,78,69,59,69,63,57,96,82,57,29.80,29.71,11,2,14,0.00
2012-9-6,80,67,56,61,55,48,94,70,34,29.90,29.79,8,2,13,0.00
2012-9-7,68,60,54,59,56,52,93,89,64,29.90,29.79,9,2,14,0.15
2012-9-8,68,58,50,55,51,47,95,80,48,29.85,29.74,10,4,17,0.01
2012-9-9,71,59,49,55,50,46,94,75,43,30.11,29.85,8,3,15,0.00
2012-9-10,74,61,46,59,53,44,95,76,49,30.15,29.97,9,3,15,0.00
2012-9-11,81,71,63,63,59,56,81,68,50,29.99,29.86,12,6,19,0.00
2012-9-12,80,71,55,62,55,38,86,59,30,30.17,29.90,9,6,18,0.04
2012-9-13,63,56,50,55,52,47,93,85,65,30.28,30.15,5,1,12,0.08
2012-9-14,70,58,48,51,46,40,94,69,36,30.30,30.23,9,3,15,0.00
2012-9-15,69,59,46,58,52,42,89,78,68,30.31,30.02,6,2,11,0.00
2012-9-16,78,66,55,57,52,48,84,61,36,30.02,29.83,11,5,18,0.00
2012-9-17,66,58,50,56,52,47,92,78,57,29.84,29.76,11,4,18,0.18
2012-9-18,56,48,39,47,40,33,92,76,45,29.98,29.81,12,5,17,0.01
2012-9-19,63,49,34,53,42,32,94,77,51,29.98,29.60,13,4,20,0.10
2012-9-20,62,52,45,49,46,43,93,82,56,29.85,29.71,11,4,24,0.06
2012-9-21,60,50,42,49,44,40,94,79,52,29.83,29.73,10,3,16,0.06
2012-9-22,58,48,38,44,38,32,93,71,42,30.11,29.73,13,5,19,0.00
2012-9-23,54,44,36,42,37,33,90,75,51,30.17,30.11,10,4,18,0.03
2012-9-24,70,55,35,50,39,32,92,58,34,30.13,29.66,15,7,25,0.00
2012-9-25,61,54,46,49,44,38,87,72,44,29.93,29.79,10,3,19,0.00
2012-9-26,59,52,42,46,42,37,87,70,48,30.22,29.93,8,2,16,0.00
2012-9-27,59,48,38,48,41,36,93,78,52,30.31,30.18,6,1,14,0.00
2012-9-28,66,52,39,48,43,36,94,75,47,30.20,30.06,5,1,9,0.00
2012-9-29,66,56,47,50,46,43,89,71,44,30.07,30.01,7,2,13,0.00
2012-9-30,63,51,43,52,46,41,92,82,66,30.04,29.95,6,2,13,0.00
2012-10-1,66,52,39,50,45,37,95,78,48,29.94,29.81,6,2,11,0.00
2012-10-2,64,55,46,54,50,44,92,82,67,29.96,29.84,6,2,12,0.00
2012-10-3,66,54,44,59,51,42,96,88,73,30.00,29.94,6,1,8,0.00
2012-10-4,73,56,46,59,47,33,97,73,42,29.98,29.80,12,5,19,0.01
2012-10-5,52,45,39,33,30,26,69,56,42,29.98,29.89,13,7,20,0.00
2012-10-6,49,42,37,33,30,26,79,63,43,30.17,29.92,12,6,23,0.00
2012-10-7,52,43,37,31,25,19,76,53,28,30.16,30.02,9,2,19,0.00
2012-10-8,57,50,38,38,31,22,63,49,42,30.02,29.76,14,7,25,0.00
2012-10-9,56,48,41,46,41,37,93,78,49,29.78,29.69,12,6,25,0.20
2012-10-10,46,38,31,38,29,22,91,72,41,30.06,29.78,12,5,16,0.00
2012-10-11,51,44,35,37,31,24,73,59,44,30.29,29.87,13,5,19,0.00
2012-10-12,49,40,28,37,29,21,89,69,35,30.48,30.27,7,2,18,0.00
2012-10-13,51,48,42,50,45,36,96,90,76,30.26,29.74,9,3,14,0.74
2012-10-14,50,48,44,48,46,42,96,94,91,29.77,29.46,12,8,19,0.85
2012-10-15,52,43,35,42,38,33,91,81,59,29.93,29.66,10,4,18,0.00
2012-10-16,60,50,35,50,45,33,93,85,69,29.91,29.50,11,4,17,0.01
2012-10-17,62,56,48,55,52,46,94,86,75,29.50,29.26,8,4,17,0.12
2012-10-18,56,49,45,55,47,42,95,93,89,29.47,29.14,10,4,15,0.36
2012-10-19,51,47,44,46,44,42,92,88,80,29.61,29.47,6,2,14,0.03
2012-10-20,56,48,40,49,44,38,94,87,71,29.87,29.60,6,2,10,0.00
2012-10-21,60,48,35,49,43,33,96,85,60,30.01,29.86,8,2,11,0.01
2012-10-22,58,52,44,54,49,42,96,90,83,30.02,29.96,9,3,15,0.00
2012-10-23,57,55,52,56,53,49,97,93,85,29.98,29.88,7,3,14,0.09
2012-10-24,66,58,55,64,57,55,98,97,93,29.90,29.73,6,3,10,0.02
2012-10-25,67,60,42,65,57,38,94,89,84,29.94,29.47,12,7,18,0.79
2012-10-26,46,39,31,37,31,26,87,73,53,30.33,29.94,10,5,16,0.00
2012-10-27,44,34,27,28,24,19,89,67,38,30.37,30.30,8,2,14,0.00
2012-10-28,45,35,28,30,26,22,85,70,51,30.42,30.34,6,1,11,0.00
2012-10-29,48,39,30,32,29,25,84,68,46,30.39,30.17,9,5,15,0.00
2012-10-30,43,39,37,31,28,26,76,65,56,30.17,29.84,20,13,29,0.00
2012-10-31,46,38,31,33,30,25,79,72,62,29.84,29.77,13,9,27,0.00
2012-11-1,45,37,28,34,28,23,82,69,45,29.94,29.80,13,5,20,0.00
2012-11-2,40,36,32,28,26,24,77,69,57,30.22,29.94,9,5,15,0.00
2012-11-3,38,36,34,29,28,27,78,72,65,30.28,30.22,6,3,15,0.00
2012-11-4,42,35,28,29,28,24,86,73,60,30.30,30.23,6,2,8,0.00
2012-11-5,34,33,33,28,26,25,78,75,72,30.30,30.26,6,4,8,0.00
2012-11-6,42,34,23,37,30,20,93,84,68,30.11,29.89,8,1,14,0.09
2012-11-7,43,41,38,40,39,37,95,91,87,30.15,29.96,4,1,14,0.02
2012-11-8,46,40,36,40,37,34,95,86,72,30.17,30.02,8,3,15,0.00
2012-11-9,46,40,30,43,37,28,95,89,85,30.14,30.06,9,4,14,0.00
2012-11-10,52,47,41,50,45,37,94,91,87,30.13,29.73,8,4,13,0.06
2012-11-11,61,54,40,54,51,38,95,87,77,29.76,29.59,10,5,17,0.55
2012-11-12,39,29,26,37,23,18,93,77,67,30.23,29.76,11,7,17,0.00
2012-11-13,32,25,21,23,19,16,84,77,66,30.44,30.23,6,4,17,0.00
2012-11-15,49,43,37,37,34,30,84,72,62,30.36,30.21,7,3,0,0.00
2012-11-16,40,33,26,32,28,24,90,79,67,30.54,30.36,6,2,0,0.00
2012-11-17,45,34,24,40,31,22,93,90,80,30.53,30.44,5,1,0,0.01
2012-11-18,52,43,34,46,40,32,96,88,79,30.44,30.29,6,2,0,0.00
2012-11-19,52,44,36,45,41,34,95,87,71,30.29,30.07,5,1,0,0.00
2012-11-20,54,42,36,48,40,35,95,92,79,30.09,30.06,1,0,2,0.00
2012-11-22,62,56,45,48,45,37,80,68,54,29.77,29.52,14,8,0,0.00
2012-11-23,44,32,28,37,22,17,77,66,56,30.15,29.55,17,12,0,0.00
2012-11-24,31,27,24,22,16,14,84,64,53,30.22,29.92,14,4,0,0.00
2012-11-25,33,29,25,27,23,17,92,80,64,30.07,29.80,8,4,0,0.03
2012-11-26,27,23,12,20,15,7,81,70,55,30.37,30.07,10,3,14,0.00
2012-11-27,30,22,10,23,14,6,84,73,59,30.38,30.13,8,4,14,0.00
2012-11-28,32,27,20,24,19,15,87,71,56,30.31,30.16,7,2,14,0.00
2012-11-29,36,31,23,30,26,19,88,81,72,30.27,30.16,9,4,17,0.00
2012-11-30,38,35,32,34,32,28,90,88,85,30.28,30.21,9,4,18,0.00
2012-12-1,39,38,38,37,36,34,91,90,88,30.23,30.10,3,2,11,0.00
2012-12-2,48,43,40,46,41,38,96,93,88,30.07,29.78,6,2,0,0.00
2012-12-3,58,48,41,57,47,39,97,94,87,30.06,29.59,12,4,13,0.09
2012-12-4,48,39,25,44,28,14,88,65,48,30.31,29.77,12,7,18,0.00
2012-12-5,34,28,21,29,21,14,83,74,64,30.47,30.21,5,2,18,0.00
2012-12-6,41,39,33,37,34,29,89,84,80,30.21,29.81,11,4,20,0.01
2012-12-7,37,33,30,32,27,24,87,78,71,30.02,29.86,6,2,20,0.00
2012-12-8,36,30,23,27,24,18,89,80,68,30.21,30.00,7,2,11,0.00
2012-12-9,34,32,24,32,28,20,95,86,74,30.22,29.76,8,4,13,0.02
2012-12-10,30,27,22,28,24,21,95,91,87,29.92,29.73,8,3,11,0.03
2012-12-11,27,25,24,25,23,22,93,91,87,29.91,29.87,8,2,11,0.00
2012-12-13,39,34,25,29,27,21,88,76,65,30.13,30.01,8,2,0,0.00
2012-12-14,36,33,20,33,30,18,92,87,82,30.26,30.09,5,2,0,0.00
2012-12-15,41,39,35,39,37,32,95,92,87,30.08,29.51,7,4,0,0.50
2012-12-16,41,39,36,40,38,35,97,96,94,29.64,29.50,5,2,0,0.01
2012-12-17,36,33,26,35,30,23,94,90,84,29.72,29.63,6,2,8,0.00
2012-12-18,32,29,26,26,25,23,90,83,77,29.83,29.71,3,1,6,0.00
2012-12-19,32,26,19,27,23,17,92,89,83,30.09,29.83,7,1,12,0.00
2012-12-20,35,33,29,34,31,27,96,95,91,30.01,29.39,16,9,29,0.31
2012-12-21,32,27,18,31,24,15,96,89,82,30.13,29.48,15,9,23,0.00
2012-12-22,27,21,14,21,16,12,91,83,71,30.15,29.93,6,2,22,0.00
2012-12-23,26,20,10,21,15,8,89,80,67,30.08,29.95,9,3,13,0.00
2012-12-24,24,20,12,21,16,9,90,87,81,30.18,29.99,8,2,13,0.00
2012-12-25,26,19,11,20,14,8,87,81,75,30.43,30.18,7,3,11,0.01
2012-12-26,27,21,12,22,17,9,88,84,76,30.40,30.20,8,5,12,0.00
2012-12-27,26,24,22,22,19,18,87,81,77,30.25,30.19,8,5,12,0.00
2012-12-28,28,24,17,26,21,14,91,88,82,30.19,29.96,6,2,12,0.00
2012-12-29,29,25,22,25,21,16,91,85,78,30.10,29.95,6,3,10,0.00
2012-12-30,22,19,15,18,14,11,87,80,71,30.24,29.93,8,3,13,0.00
2012-12-31,19,18,17,16,15,13,86,86,85,29.93,29.90,3,2,13,0.00
2013-1-1,18,11,5,9,4,1,85,74,59,30.23,30.09,6,3,0,0.00